createdAt,value
2023-03-21T00:01:55.364Z,97997.19
2023-03-21T00:04:28.365Z,97991.53
2023-03-21T00:06:56.991Z,97995.69
2023-03-21T00:09:24.594Z,97992.72
2023-03-21T00:11:51.867Z,97985.63
2023-03-21T00:14:20.295Z,97985.38
2023-03-21T00:16:52.185Z,97988.22
2023-03-21T00:19:21.129Z,97989.78
2023-03-21T00:22:08.746Z,97987.72
2023-03-21T00:24:37.850Z,97987.72
2023-03-21T00:27:30.257Z,97983.75
2023-03-21T00:29:53.674Z,97982.09
2023-03-21T00:32:22.170Z,97985.78
2023-03-21T00:35:34.750Z,97989.09
2023-03-21T00:37:37.607Z,97985.53
2023-03-21T00:40:23.078Z,97982.06
2023-03-21T00:42:53.001Z,97981.34
2023-03-21T00:45:22.100Z,97982.06
2023-03-21T00:47:49.893Z,97982.41
2023-03-21T00:50:18.227Z,97984.91
2023-03-21T00:52:45.619Z,97973.63
2023-03-21T00:55:19.889Z,97993.72
2023-03-21T00:57:50.200Z,97982.72
2023-03-21T01:00:23.990Z,97984.63
2023-03-21T01:03:04.262Z,97997.81
2023-03-21T01:06:01.195Z,97990.81
2023-03-21T01:08:33.225Z,97993.38
2023-03-21T01:11:17.864Z,97991.00
2023-03-21T01:13:53.785Z,97985.38
2023-03-21T01:16:25.907Z,97987.75
2023-03-21T01:18:54.294Z,97989.88
2023-03-21T01:21:22.319Z,97984.66
2023-03-21T01:23:49.617Z,97991.31
2023-03-21T01:26:17.268Z,97983.59
2023-03-21T01:28:45.574Z,97976.50
2023-03-21T01:31:16.941Z,97985.19
2023-03-21T01:33:44.810Z,97979.97
2023-03-21T01:36:24.510Z,97973.78
2023-03-21T01:38:53.189Z,97973.97
2023-03-21T01:41:44.129Z,97977.94
2023-03-21T01:44:19.735Z,97972.41
2023-03-21T01:47:09.667Z,97974.09
2023-03-21T01:49:48.011Z,97969.34
2023-03-21T01:52:33.843Z,97972.19
2023-03-21T01:55:11.944Z,97964.13
2023-03-21T01:58:04.009Z,97963.22
2023-03-21T02:00:34.077Z,97970.22
2023-03-21T02:03:16.979Z,97964.34
2023-03-21T02:06:08.622Z,97959.47
2023-03-21T02:08:39.499Z,97959.13
2023-03-21T02:11:10.234Z,97952.75
2023-03-21T02:13:38.265Z,97955.38
2023-03-21T02:16:52.715Z,97953.06
2023-03-21T02:20:15.826Z,97955.56
2023-03-21T02:23:23.188Z,97950.03
2023-03-21T02:26:41.959Z,97946.91
2023-03-21T02:29:38.267Z,97954.84
2023-03-21T02:32:40.559Z,97955.81
2023-03-21T02:36:00.600Z,97961.69
2023-03-21T02:38:43.730Z,97961.78
2023-03-21T02:41:27.475Z,97960.00
2023-03-21T02:44:12.953Z,97966.19
2023-03-21T02:47:05.971Z,97964.88
2023-03-21T02:50:07.433Z,97958.19
2023-03-21T02:52:39.851Z,97964.03
2023-03-21T02:55:27.304Z,97955.25
2023-03-21T02:58:06.958Z,97962.69
2023-03-21T03:00:42.962Z,97956.28
2023-03-21T03:03:20.957Z,97952.97
2023-03-21T03:06:02.636Z,97957.75
2023-03-21T03:09:01.112Z,97954.19
2023-03-21T03:11:37.057Z,97959.41
2023-03-21T03:14:53.170Z,97955.16
2023-03-21T03:17:42.494Z,97953.91
2023-03-21T03:20:39.129Z,97949.84
2023-03-21T03:23:35.865Z,97959.03
2023-03-21T03:26:09.220Z,97950.88
2023-03-21T03:28:45.023Z,97956.22
2023-03-21T03:31:21.997Z,97947.97
2023-03-21T03:33:54.877Z,97948.59
2023-03-21T03:36:32.818Z,97954.25
2023-03-21T03:39:09.076Z,97955.91
2023-03-21T03:42:06.066Z,97952.34
2023-03-21T03:44:33.550Z,97942.56
2023-03-21T03:47:29.855Z,97947.69
2023-03-21T03:50:20.757Z,97943.50
2023-03-21T03:53:07.098Z,97946.28
2023-03-21T03:55:38.886Z,97939.72
2023-03-21T03:58:13.194Z,97944.63
2023-03-21T04:00:49.516Z,97952.97
2023-03-21T04:03:16.899Z,97953.19
2023-03-21T04:05:47.783Z,97943.56
2023-03-21T04:08:16.758Z,97945.91
2023-03-21T04:10:44.762Z,97951.72
2023-03-21T04:13:12.081Z,97951.00
2023-03-21T04:15:39.674Z,97946.81
2023-03-21T04:18:07.241Z,97956.53
2023-03-21T04:20:37.269Z,97962.66
2023-03-21T04:23:06.098Z,97953.41
2023-03-21T04:25:44.686Z,97946.28
2023-03-21T04:28:15.121Z,97943.91
2023-03-21T04:30:52.030Z,97949.63
2023-03-21T04:33:28.264Z,97948.69
2023-03-21T04:35:56.398Z,97956.53
2023-03-21T04:38:25.211Z,97950.88
2023-03-21T04:40:52.951Z,97950.66
2023-03-21T04:43:20.884Z,97944.31
2023-03-21T04:45:48.394Z,97948.38
2023-03-21T04:48:16.212Z,97950.03
2023-03-21T04:50:45.446Z,97945.16
2023-03-21T04:53:13.188Z,97943.16
2023-03-21T04:55:40.706Z,97946.41
2023-03-21T04:58:08.540Z,97952.97
2023-03-21T05:00:39.141Z,97951.63
2023-03-21T05:03:09.231Z,97947.13
2023-03-21T05:05:38.627Z,97958.81
2023-03-21T05:08:06.542Z,97953.41
2023-03-21T05:10:34.446Z,97951.91
2023-03-21T05:13:01.707Z,97956.09
2023-03-21T05:15:29.321Z,97949.13
2023-03-21T05:17:58.713Z,97940.75
2023-03-21T05:20:26.512Z,97938.28
2023-03-21T05:22:53.761Z,97940.97
2023-03-21T05:25:35.421Z,97949.09
2023-03-21T05:28:02.855Z,97955.03
2023-03-21T05:30:31.051Z,97958.31
2023-03-21T05:32:58.562Z,97959.03
2023-03-21T05:35:27.041Z,97961.41
2023-03-21T05:37:54.402Z,97972.78
2023-03-21T05:40:22.384Z,97968.63
2023-03-21T05:42:49.642Z,97966.22
2023-03-21T05:45:17.345Z,97967.91
2023-03-21T05:47:44.638Z,97973.59
2023-03-21T05:50:13.726Z,97969.50
2023-03-21T05:52:41.092Z,97969.69
2023-03-21T05:55:08.931Z,97965.19
2023-03-21T05:57:39.321Z,97963.69
2023-03-21T06:00:09.069Z,97972.19
2023-03-21T06:02:36.431Z,97972.47
2023-03-21T06:05:04.413Z,97976.88
2023-03-21T06:07:32.057Z,97970.38
2023-03-21T06:09:59.637Z,97969.75
2023-03-21T06:12:26.986Z,97968.16
2023-03-21T06:14:54.601Z,97968.59
2023-03-21T06:17:22.177Z,97969.16
2023-03-21T06:19:49.869Z,97971.81
2023-03-21T06:22:17.085Z,97971.44
2023-03-21T06:24:44.684Z,97973.66
2023-03-21T06:27:12.273Z,97977.09
2023-03-21T06:29:39.990Z,97986.50
2023-03-21T06:32:07.739Z,97984.44
2023-03-21T06:34:35.314Z,97984.75
2023-03-21T06:37:04.124Z,97986.16
2023-03-21T06:39:33.202Z,97979.84
2023-03-21T06:42:01.419Z,97987.28
2023-03-21T06:44:29.472Z,97990.38
2023-03-21T06:46:56.914Z,97984.25
2023-03-21T06:49:26.906Z,97987.22
2023-03-21T06:51:54.244Z,97996.81
2023-03-21T06:54:22.159Z,97993.59
2023-03-21T06:56:49.585Z,98005.94
2023-03-21T06:59:17.529Z,97999.47
2023-03-21T07:01:44.960Z,98003.03
2023-03-21T07:04:12.791Z,98003.56
2023-03-21T07:06:40.113Z,98012.25
2023-03-21T07:09:07.724Z,98013.56
2023-03-21T07:11:37.039Z,98009.66
2023-03-21T07:14:05.045Z,98019.56
2023-03-21T07:16:32.881Z,98020.88
2023-03-21T07:19:00.834Z,98025.53
2023-03-21T07:21:28.228Z,98024.75
2023-03-21T07:23:55.728Z,98035.69
2023-03-21T07:26:22.989Z,98038.84
2023-03-21T07:28:50.671Z,98031.94
2023-03-21T07:31:19.578Z,98036.34
2023-03-21T07:33:47.248Z,98031.41
2023-03-21T07:36:16.311Z,98020.81
2023-03-21T07:38:46.069Z,98031.16
2023-03-21T07:43:46.795Z,98023.41
2023-03-21T07:46:14.232Z,98029.38
2023-03-21T07:48:42.092Z,98026.44
2023-03-21T07:51:09.716Z,98024.97
2023-03-21T07:53:37.412Z,98031.03
2023-03-21T07:56:05.773Z,98029.66
2023-03-21T07:58:34.458Z,98028.78
2023-03-21T08:01:02.425Z,98028.88
2023-03-21T08:03:32.792Z,98029.75
2023-03-21T08:06:03.934Z,98029.59
2023-03-21T08:08:31.554Z,98037.69
2023-03-21T08:10:58.889Z,98031.16
2023-03-21T08:13:26.724Z,98040.53
2023-03-21T08:15:54.184Z,98041.97
2023-03-21T08:18:22.182Z,98038.88
2023-03-21T08:20:57.745Z,98042.31
2023-03-21T08:23:26.016Z,98047.53
2023-03-21T08:25:55.938Z,98049.06
2023-03-21T08:28:25.099Z,98048.56
2023-03-21T08:30:52.473Z,98049.69
2023-03-21T08:33:20.943Z,98043.66
2023-03-21T08:35:48.472Z,98045.47
2023-03-21T08:38:17.066Z,98040.56
2023-03-21T08:40:44.377Z,98040.81
2023-03-21T08:43:14.657Z,98047.97
2023-03-21T08:45:42.296Z,98049.66
2023-03-21T08:48:09.887Z,98057.00
2023-03-21T08:50:37.474Z,98043.66
2023-03-21T08:53:05.114Z,98052.59
2023-03-21T08:55:33.253Z,98058.78
2023-03-21T08:58:02.124Z,98059.69
2023-03-21T09:00:29.940Z,98056.84
2023-03-21T09:02:58.953Z,98061.19
2023-03-21T09:05:27.244Z,98061.34
2023-03-21T09:07:55.088Z,98067.00
2023-03-21T09:10:24.382Z,98060.38
2023-03-21T09:12:54.801Z,98064.38
2023-03-21T09:15:28.971Z,98066.41
2023-03-21T09:17:58.813Z,98068.47
2023-03-21T09:20:31.362Z,98070.09
2023-03-21T09:23:02.035Z,98073.81
2023-03-21T09:25:32.721Z,98077.50
2023-03-21T09:28:05.300Z,98076.75
2023-03-21T09:30:36.693Z,98082.25
2023-03-21T09:33:09.779Z,98082.13
2023-03-21T09:35:37.709Z,98092.88
2023-03-21T09:38:05.761Z,98084.53
2023-03-21T09:41:09.397Z,98085.56
2023-03-21T09:44:12.134Z,98092.00
2023-03-21T09:47:03.926Z,98091.19
2023-03-21T09:49:42.200Z,98097.66
2023-03-21T09:52:23.962Z,98087.59
2023-03-21T09:54:55.734Z,98093.31
2023-03-21T09:57:41.908Z,98101.47
2023-03-21T10:04:29.092Z,98093.97
2023-03-21T10:07:02.271Z,98096.75
2023-03-21T10:09:32.680Z,98092.19
2023-03-21T10:12:30.685Z,98091.75
2023-03-21T10:15:02.092Z,98075.84
2023-03-21T10:17:43.584Z,98081.44
2023-03-21T10:20:18.443Z,98097.53
2023-03-21T10:22:48.957Z,98088.34
2023-03-21T10:25:22.427Z,98090.41
2023-03-21T10:27:52.790Z,98082.63
2023-03-21T10:34:47.043Z,98089.22
2023-03-21T10:37:16.929Z,98091.09
2023-03-21T10:39:50.848Z,98094.97
2023-03-21T10:42:32.884Z,98086.28
2023-03-21T10:45:00.331Z,98093.88
2023-03-21T10:47:34.024Z,98089.00
2023-03-21T10:50:16.214Z,98086.81
2023-03-21T10:53:00.796Z,98093.94
2023-03-21T10:55:34.735Z,98098.03
2023-03-21T10:58:19.064Z,98098.47
2023-03-21T11:00:48.199Z,98086.41
2023-03-21T11:03:32.385Z,98094.56
2023-03-21T11:06:11.526Z,98097.38
2023-03-21T11:09:16.934Z,98090.69
2023-03-21T11:12:13.345Z,98090.66
2023-03-21T11:14:46.832Z,98086.63
2023-03-21T11:17:17.089Z,98094.91
2023-03-21T11:20:06.080Z,98085.19
2023-03-21T11:22:43.601Z,98084.09
2023-03-21T11:25:32.907Z,98086.94
2023-03-21T11:28:09.413Z,98072.94
2023-03-21T11:30:37.056Z,98071.84
2023-03-21T11:33:07.048Z,98069.16
2023-03-21T11:35:39.388Z,98068.28
2023-03-21T11:38:26.416Z,98060.16
2023-03-21T11:41:01.018Z,98069.41
2023-03-21T11:43:40.060Z,98063.28
2023-03-21T11:46:14.898Z,98062.97
2023-03-21T11:48:50.443Z,98061.03
2023-03-21T11:51:41.265Z,98069.66
2023-03-21T11:54:14.500Z,98061.63
2023-03-21T11:56:51.037Z,98070.81
2023-03-21T11:59:43.171Z,98068.84
2023-03-21T12:02:55.418Z,98068.19
2023-03-21T12:06:00.404Z,98063.19
2023-03-21T12:09:16.252Z,98059.47
2023-03-21T12:12:30.005Z,98056.44
2023-03-21T12:15:27.141Z,98051.63
2023-03-21T12:18:16.137Z,98054.22
2023-03-21T12:20:53.747Z,98050.72
2023-03-21T12:24:05.950Z,98058.09
2023-03-21T12:27:02.730Z,98049.22
2023-03-21T12:29:30.218Z,98051.63
2023-03-21T12:32:06.693Z,98049.38
2023-03-21T12:35:00.288Z,98052.44
2023-03-21T12:37:39.361Z,98041.31
2023-03-21T12:40:39.671Z,98040.22
2023-03-21T12:43:36.861Z,98034.19
2023-03-21T12:46:26.737Z,98043.56
2023-03-21T12:49:07.870Z,98043.66
2023-03-21T12:51:44.819Z,98029.84
2023-03-21T12:54:46.903Z,98034.25
2023-03-21T12:57:35.621Z,98028.25
2023-03-21T13:00:17.686Z,98027.69
2023-03-21T13:02:57.617Z,98026.09
2023-03-21T13:05:41.204Z,98016.97
2023-03-21T13:08:26.424Z,98021.66
2023-03-21T13:10:57.518Z,98014.09
2023-03-21T13:13:59.446Z,98018.50
2023-03-21T13:16:45.214Z,98015.59
2023-03-21T13:19:47.788Z,98016.63
2023-03-21T13:22:29.070Z,98014.47
2023-03-21T13:25:23.138Z,98012.28
2023-03-21T13:28:01.776Z,98008.25
2023-03-21T13:30:34.022Z,98010.19
2023-03-21T13:33:21.784Z,98016.16
2023-03-21T13:36:05.666Z,98011.97
2023-03-21T13:38:40.152Z,98010.88
2023-03-21T13:41:16.983Z,98007.19
2023-03-21T13:44:05.997Z,98013.72
2023-03-21T13:46:54.206Z,98016.94
2023-03-21T13:49:41.682Z,98016.56
2023-03-21T13:52:29.277Z,98006.63
2023-03-21T13:54:58.247Z,98009.44
2023-03-21T13:57:30.516Z,98001.09
2023-03-21T14:00:29.538Z,98004.03
2023-03-21T14:03:17.649Z,98002.34
2023-03-21T14:09:38.258Z,97998.59
2023-03-21T14:12:14.325Z,97999.94
2023-03-21T14:14:48.972Z,97998.41
2023-03-21T14:17:33.025Z,97987.97
2023-03-21T14:20:18.475Z,97985.59
2023-03-21T14:22:48.820Z,97984.41
2023-03-21T14:25:21.232Z,97980.59
2023-03-21T14:27:57.188Z,97989.28
2023-03-21T14:30:34.895Z,97992.38
2023-03-21T14:33:24.045Z,97992.38
2023-03-21T14:35:53.066Z,97996.13
2023-03-21T14:38:34.740Z,97987.22
2023-03-21T14:41:02.660Z,97990.66
2023-03-21T14:43:34.079Z,97986.91
2023-03-21T14:46:02.005Z,97987.69
2023-03-21T14:48:35.510Z,97986.06
2023-03-21T14:51:09.663Z,97985.13
2023-03-21T14:53:42.658Z,97985.06
2023-03-21T14:56:26.064Z,97982.91
2023-03-21T14:58:55.051Z,97987.59
2023-03-21T15:01:34.837Z,97984.72
2023-03-21T15:04:07.634Z,97981.72
2023-03-21T15:06:52.247Z,97989.38
2023-03-21T15:09:22.954Z,97980.41
2023-03-21T15:11:53.332Z,97982.75
2023-03-21T15:14:36.826Z,97978.69
2023-03-21T15:17:08.467Z,97981.06
2023-03-21T15:19:43.774Z,97976.59
2023-03-21T15:22:43.498Z,97979.44
2023-03-21T15:25:20.184Z,97975.34
2023-03-21T15:27:51.075Z,97976.75
2023-03-21T15:30:30.456Z,97967.22
2023-03-21T15:33:07.745Z,97963.81
2023-03-21T15:35:46.202Z,97970.75
2023-03-21T15:38:24.191Z,97965.84
2023-03-21T15:40:52.253Z,97967.63
2023-03-21T15:43:20.468Z,97966.22
2023-03-21T15:45:54.428Z,97961.84
2023-03-21T15:48:29.680Z,97967.81
2023-03-21T15:51:23.787Z,97961.28
2023-03-21T15:53:56.651Z,97966.25
2023-03-21T15:56:25.211Z,97961.03
2023-03-21T15:58:53.488Z,97960.44
2023-03-21T16:01:26.466Z,97957.44
2023-03-21T16:04:13.369Z,97956.03
2023-03-21T16:06:53.770Z,97958.19
2023-03-21T16:09:23.813Z,97959.38
2023-03-21T16:11:59.817Z,97964.50
2023-03-21T16:18:29.559Z,97969.25
2023-03-21T16:20:59.333Z,97964.28
2023-03-21T16:23:27.129Z,97970.34
2023-03-21T16:25:58.289Z,97969.38
2023-03-21T16:28:25.737Z,97960.00
2023-03-21T16:30:53.334Z,97960.69
2023-03-21T16:33:21.975Z,97957.94
2023-03-21T16:35:49.608Z,97965.47
2023-03-21T16:38:16.908Z,97957.94
2023-03-21T16:40:45.096Z,97963.19
2023-03-21T16:43:12.631Z,97971.31
2023-03-21T16:45:40.535Z,97971.44
2023-03-21T16:48:09.134Z,97972.97
2023-03-21T16:50:47.558Z,97972.97
2023-03-21T16:53:14.970Z,97977.00
2023-03-21T16:55:42.743Z,97969.13
2023-03-21T16:58:15.710Z,97978.91
2023-03-21T17:00:43.584Z,97971.16
2023-03-21T17:03:21.677Z,97968.81
2023-03-21T17:05:49.623Z,97973.22
2023-03-21T17:08:19.928Z,97987.47
2023-03-21T17:10:47.663Z,97989.28
2023-03-21T17:13:15.012Z,97989.41
2023-03-21T17:15:42.675Z,97987.03
2023-03-21T17:18:12.373Z,97991.78
2023-03-21T17:20:41.855Z,97985.84
2023-03-21T17:23:10.361Z,97990.47
2023-03-21T17:25:38.942Z,97985.34
2023-03-21T17:28:06.356Z,97988.22
2023-03-21T17:30:36.936Z,97997.84
2023-03-21T17:33:04.437Z,98005.00
2023-03-21T17:35:32.409Z,98002.59
2023-03-21T17:37:59.872Z,98008.06
2023-03-21T17:40:32.081Z,98009.16
2023-03-21T17:43:02.620Z,98002.47
2023-03-21T17:45:30.569Z,98011.41
2023-03-21T17:47:58.133Z,98010.44
2023-03-21T17:50:31.466Z,98012.22
2023-03-21T17:52:58.916Z,98011.28
2023-03-21T17:55:26.725Z,98004.63
2023-03-21T17:57:54.100Z,98001.38
2023-03-21T18:00:26.739Z,98003.06
2023-03-21T18:02:54.851Z,98005.19
2023-03-21T18:05:24.981Z,98005.31
2023-03-21T18:08:11.321Z,97999.47
2023-03-21T18:10:42.146Z,98008.97
2023-03-21T18:13:10.123Z,98008.03
2023-03-21T18:15:38.535Z,98007.69
2023-03-21T18:18:06.029Z,98006.72
2023-03-21T18:21:03.984Z,98012.22
2023-03-21T18:23:21.609Z,98004.56
2023-03-21T18:25:50.026Z,98004.81
2023-03-21T18:28:20.488Z,98005.25
2023-03-21T18:31:09.442Z,97998.59
2023-03-21T18:33:41.769Z,98011.31
2023-03-21T18:36:14.106Z,98005.13
2023-03-21T18:38:42.996Z,98007.84
2023-03-21T18:41:12.151Z,98005.94
2023-03-21T18:46:27.462Z,98003.84
2023-03-21T18:48:55.259Z,98011.56
2023-03-21T18:51:23.197Z,98003.00
2023-03-21T18:53:50.752Z,98004.66
2023-03-21T18:57:05.698Z,98001.94
2023-03-21T18:59:07.565Z,98007.16
2023-03-21T19:01:35.997Z,98005.25
2023-03-21T19:04:20.704Z,98006.91
2023-03-21T19:06:50.360Z,98009.53
2023-03-21T19:09:19.234Z,98014.19
2023-03-21T19:11:47.966Z,98016.91
2023-03-21T19:14:18.731Z,98022.47
2023-03-21T19:17:34.302Z,98018.25
2023-03-21T19:19:35.055Z,98019.63
2023-03-21T19:22:04.364Z,98021.53
2023-03-21T19:24:32.738Z,98034.50
2023-03-21T19:27:00.506Z,98024.16
2023-03-21T19:29:28.856Z,98026.16
2023-03-21T19:31:56.880Z,98028.19
2023-03-21T19:34:24.224Z,98022.72
2023-03-21T19:36:52.638Z,98033.66
2023-03-21T19:39:22.798Z,98018.94
2023-03-21T19:41:55.226Z,98020.78
2023-03-21T19:44:29.485Z,98019.00
2023-03-21T19:46:57.037Z,98024.03
2023-03-21T19:49:34.698Z,98020.47
2023-03-21T19:52:13.451Z,98017.97
2023-03-21T19:54:40.802Z,98017.03
2023-03-21T19:57:09.877Z,98021.53
2023-03-21T19:59:37.831Z,98016.41
2023-03-21T20:02:31.196Z,98029.47
2023-03-21T20:04:53.481Z,98023.31
2023-03-21T20:07:21.072Z,98021.03
2023-03-21T20:09:52.541Z,98017.47
2023-03-21T20:12:23.105Z,98019.97
2023-03-21T20:14:58.060Z,98023.66
2023-03-21T20:17:33.025Z,98023.06
2023-03-21T20:20:00.340Z,98021.38
2023-03-21T20:22:53.594Z,98023.06
2023-03-21T20:25:16.142Z,98023.16
2023-03-21T20:27:44.966Z,98018.84
2023-03-21T20:30:17.119Z,98019.69
2023-03-21T20:32:47.137Z,98024.84
2023-03-21T20:35:29.623Z,98017.00
2023-03-21T20:38:04.253Z,98020.56
2023-03-21T20:40:31.601Z,98022.31
2023-03-21T20:43:03.062Z,98024.84
2023-03-21T20:45:43.730Z,98018.03
2023-03-21T20:48:11.378Z,98018.13
2023-03-21T20:50:39.580Z,98016.59
2023-03-21T20:53:08.856Z,98010.53
2023-03-21T20:55:37.409Z,98017.31
2023-03-21T20:58:26.710Z,98011.97
2023-03-21T21:00:52.454Z,98008.41
2023-03-21T21:03:21.054Z,98004.88
2023-03-21T21:05:48.457Z,98008.41
2023-03-21T21:08:19.257Z,98007.69
2023-03-21T21:11:27.075Z,98009.47
2023-03-21T21:13:37.610Z,98003.63
2023-03-21T21:16:07.505Z,97999.69
2023-03-21T21:18:36.692Z,98003.47
2023-03-21T21:21:06.610Z,98003.78
2023-03-21T21:23:37.395Z,97996.19
2023-03-21T21:26:07.806Z,98010.31
2023-03-21T21:28:38.560Z,98008.75
2023-03-21T21:31:14.710Z,98014.19
2023-03-21T21:33:43.029Z,98013.38
2023-03-21T21:36:13.048Z,98006.59
2023-03-21T21:38:41.348Z,98006.47
2023-03-21T21:41:17.272Z,98003.13
2023-03-21T21:43:45.552Z,97998.63
2023-03-21T21:46:13.694Z,98003.13
2023-03-21T21:48:42.550Z,98005.63
2023-03-21T21:51:10.636Z,98006.78
2023-03-21T21:53:38.997Z,98000.84
2023-03-21T21:56:06.984Z,98002.94
2023-03-21T21:58:38.703Z,97998.06
2023-03-21T22:01:07.265Z,97997.47
2023-03-21T22:03:41.193Z,97996.09
2023-03-21T22:06:10.243Z,97996.41
2023-03-21T22:08:38.496Z,97994.63
2023-03-21T22:11:06.803Z,97992.38
2023-03-21T22:13:34.498Z,97989.47
2023-03-21T22:16:01.968Z,97987.69
2023-03-21T22:18:29.750Z,97989.69
2023-03-21T22:20:57.132Z,97992.19
2023-03-21T22:23:26.169Z,97985.19
2023-03-21T22:25:54.568Z,97987.56
2023-03-21T22:28:25.651Z,97992.06
2023-03-21T22:30:56.221Z,97984.00
2023-03-21T22:33:24.280Z,97988.41
2023-03-21T22:35:53.000Z,97983.28
2023-03-21T22:38:24.342Z,97985.78
2023-03-21T22:41:00.300Z,97984.22
2023-03-21T22:43:29.350Z,97989.22
2023-03-21T22:45:56.730Z,97985.91
2023-03-21T22:48:24.369Z,97974.47
2023-03-21T22:50:51.676Z,97961.81
2023-03-21T22:53:19.379Z,97963.69
2023-03-21T22:55:46.820Z,97953.59
2023-03-21T22:58:14.462Z,97953.19
2023-03-21T23:00:41.835Z,97958.97
2023-03-21T23:03:09.499Z,97948.72
2023-03-21T23:05:42.173Z,97952.03
2023-03-21T23:08:10.989Z,97946.84
2023-03-21T23:10:41.126Z,97948.19
2023-03-21T23:13:09.179Z,97946.19
2023-03-21T23:15:38.763Z,97950.69
2023-03-21T23:18:07.082Z,97940.03
2023-03-21T23:20:34.318Z,97943.69
2023-03-21T23:23:02.402Z,97934.59
2023-03-21T23:25:30.549Z,97942.97
2023-03-21T23:27:58.224Z,97939.53
2023-03-21T23:30:26.486Z,97942.97
2023-03-21T23:32:54.026Z,97939.63
2023-03-21T23:35:21.454Z,97939.81
2023-03-21T23:37:52.786Z,97948.69
2023-03-21T23:40:21.318Z,97943.03
2023-03-21T23:42:48.993Z,97944.81
2023-03-21T23:45:16.388Z,97943.66
2023-03-21T23:47:44.091Z,97941.06
2023-03-21T23:50:11.628Z,97935.84
2023-03-21T23:52:41.682Z,97940.22
2023-03-21T23:55:09.709Z,97931.78
2023-03-21T23:57:41.783Z,97924.38
